Time;durP1;ratioP1;P1;durP2;ratioP2;P2;SDS_P1;SDS_P2;PMS_P1;PMS_P2;Temp;Humidity;BMP_temperature;BMP_pressure;BME280_temperature;BME280_humidity;BME280_pressure;Samples;Min_cycle;Max_cycle;Signal;HPM_P1;HPM_P2
2023/06/28 00:00:35;;;;;;;13.05;4.65;;;;;;;;;;5053826;28;20098;-71
2023/06/28 00:03:01;;;;;;;11.35;4.82;;;;;;;;;;5036006;28;20042;-72
2023/06/28 00:05:27;;;;;;;9.45;4.47;;;;;;;;;;5032806;28;20065;-72
2023/06/28 00:07:53;;;;;;;9.95;4.60;;;;;;;;;;5036032;28;20045;-72
2023/06/28 00:10:19;;;;;;;13.30;4.90;;;;;;;;;;5034427;28;20053;-72
2023/06/28 00:12:45;;;;;;;10.90;4.90;;;;;;;;;;5050439;28;20053;-72
2023/06/28 00:15:12;;;;;;;11.15;4.47;;;;;;;;;;5035869;28;20048;-72
2023/06/28 00:17:38;;;;;;;11.00;4.30;;;;;;;;;;5047856;28;20078;-72
2023/06/28 00:20:08;;;;;;;9.20;4.18;;;;;;;;;;5034074;28;20103;-71
2023/06/28 00:22:34;;;;;;;14.82;4.85;;;;;;;;;;5047228;28;20095;-72
2023/06/28 00:25:01;;;;;;;11.32;4.45;;;;;;;;;;5040499;28;20596;-71
2023/06/28 00:27:28;;;;;;;10.10;4.25;;;;;;;;;;5034490;28;20045;-71
2023/06/28 00:29:55;;;;;;;12.25;4.40;;;;;;;;;;5039094;28;20131;-71
2023/06/28 00:32:22;;;;;;;9.80;4.28;;;;;;;;;;5044328;28;20045;-71
2023/06/28 00:34:48;;;;;;;10.43;4.63;;;;;;;;;;5049748;28;20087;-71
2023/06/28 00:37:14;;;;;;;10.52;4.55;;;;;;;;;;5041891;28;20066;-72
2023/06/28 00:39:40;;;;;;;12.10;4.65;;;;;;;;;;5052671;28;20045;-72
2023/06/28 00:42:07;;;;;;;11.27;5.05;;;;;;;;;;5021059;28;20490;-72
2023/06/28 00:44:34;;;;;;;10.68;4.03;;;;;;;;;;5033909;28;20107;-72
2023/06/28 00:47:01;;;;;;;10.50;4.20;;;;;;;;;;5034319;28;20390;-72
2023/06/28 00:49:30;;;;;;;9.02;4.28;;;;;;;;;;5038744;28;20550;-72
2023/06/28 00:51:57;;;;;;;9.93;3.95;;;;;;;;;;5053891;28;20048;-71
2023/06/28 00:54:26;;;;;;;12.52;4.63;;;;;;;;;;5053475;28;20120;-72
2023/06/28 00:56:52;;;;;;;12.07;4.30;;;;;;;;;;5053933;28;20044;-72
2023/06/28 00:59:19;;;;;;;11.73;3.90;;;;;;;;;;5052503;28;20048;-72
2023/06/28 01:01:47;;;;;;;12.02;3.88;;;;;;;;;;5053550;28;20061;-72
2023/06/28 01:04:13;;;;;;;9.68;4.22;;;;;;;;;;5053503;28;20074;-72
2023/06/28 01:06:41;;;;;;;10.10;4.25;;;;;;;;;;5053745;28;20425;-72
2023/06/28 01:09:11;;;;;;;10.77;4.10;;;;;;;;;;5052944;28;20367;-72
2023/06/28 01:11:38;;;;;;;10.73;4.03;;;;;;;;;;5034797;28;20096;-72
2023/06/28 01:14:05;;;;;;;9.07;4.10;;;;;;;;;;5042610;28;20377;-72
2023/06/28 01:16:33;;;;;;;13.35;4.60;;;;;;;;;;5052980;28;20060;-74
2023/06/28 01:19:03;;;;;;;13.15;4.28;;;;;;;;;;5053382;28;20077;-72
2023/06/28 01:21:33;;;;;;;11.35;4.20;;;;;;;;;;5034390;28;20056;-72
2023/06/28 01:24:02;;;;;;;12.35;4.72;;;;;;;;;;5034620;28;20175;-72
2023/06/28 01:26:28;;;;;;;12.10;4.75;;;;;;;;;;5033140;28;20168;-72
2023/06/28 01:28:55;;;;;;;11.32;4.75;;;;;;;;;;5035003;28;20049;-72
2023/06/28 01:31:21;;;;;;;10.05;4.53;;;;;;;;;;5048681;28;20194;-72
2023/06/28 01:33:48;;;;;;;10.75;4.70;;;;;;;;;;5043301;28;20401;-72
2023/06/28 01:36:14;;;;;;;12.75;4.97;;;;;;;;;;5033125;28;20125;-72
2023/06/28 01:38:41;;;;;;;10.18;4.97;;;;;;;;;;5033829;28;20405;-72
2023/06/28 01:41:08;;;;;;;12.25;5.40;;;;;;;;;;5049243;28;20041;-72
2023/06/28 01:43:34;;;;;;;14.40;5.50;;;;;;;;;;5046612;28;20381;-71
2023/06/28 01:46:00;;;;;;;11.45;5.20;;;;;;;;;;5032714;28;20047;-71
2023/06/28 01:48:27;;;;;;;11.68;4.90;;;;;;;;;;5032906;28;20426;-71
2023/06/28 01:50:53;;;;;;;13.98;5.65;;;;;;;;;;5049585;28;20115;-71
2023/06/28 01:53:19;;;;;;;11.18;4.80;;;;;;;;;;5049527;28;20055;-71
2023/06/28 01:55:45;;;;;;;10.88;4.90;;;;;;;;;;5034965;28;20080;-71
2023/06/28 01:58:11;;;;;;;11.50;5.20;;;;;;;;;;5052644;28;20045;-72
2023/06/28 02:00:38;;;;;;;10.00;4.95;;;;;;;;;;5051686;28;20055;-70
2023/06/28 02:03:04;;;;;;;9.95;5.13;;;;;;;;;;5051230;28;20045;-72
2023/06/28 02:05:31;;;;;;;10.63;5.50;;;;;;;;;;5031226;28;20042;-72
2023/06/28 02:07:57;;;;;;;12.25;5.13;;;;;;;;;;5033008;28;20133;-71
2023/06/28 02:10:24;;;;;;;12.18;5.15;;;;;;;;;;5030959;28;20057;-71
2023/06/28 02:12:50;;;;;;;11.80;5.00;;;;;;;;;;5032819;28;20049;-71
2023/06/28 02:15:16;;;;;;;11.57;4.97;;;;;;;;;;5056728;28;20051;-71
2023/06/28 02:17:42;;;;;;;16.65;5.90;;;;;;;;;;5058931;28;20045;-71
2023/06/28 02:20:12;;;;;;;9.98;5.38;;;;;;;;;;5052842;28;20095;-72
2023/06/28 02:22:39;;;;;;;11.90;5.78;;;;;;;;;;5044684;28;20045;-72
2023/06/28 02:25:06;;;;;;;11.55;5.47;;;;;;;;;;5048425;28;20347;-72
2023/06/28 02:27:32;;;;;;;10.70;5.28;;;;;;;;;;5052321;28;20119;-73
2023/06/28 02:29:58;;;;;;;15.48;5.30;;;;;;;;;;5051428;28;20033;-72
2023/06/28 02:32:24;;;;;;;11.23;5.40;;;;;;;;;;5020817;28;20099;-72
2023/06/28 02:34:51;;;;;;;16.77;5.25;;;;;;;;;;5046141;28;20520;-72
2023/06/28 02:37:17;;;;;;;15.30;5.60;;;;;;;;;;5051877;28;20432;-72
2023/06/28 02:39:43;;;;;;;10.30;4.72;;;;;;;;;;5048569;28;20077;-72
2023/06/28 02:42:09;;;;;;;12.77;5.25;;;;;;;;;;5032805;28;20033;-72
2023/06/28 02:44:35;;;;;;;10.80;5.82;;;;;;;;;;5037110;28;20088;-72
2023/06/28 02:47:02;;;;;;;11.50;5.30;;;;;;;;;;5032010;28;20037;-72
2023/06/28 02:49:28;;;;;;;10.45;5.10;;;;;;;;;;5036840;28;20102;-72
2023/06/28 02:51:54;;;;;;;13.13;5.38;;;;;;;;;;5050063;28;20060;-72
2023/06/28 02:54:20;;;;;;;12.45;5.53;;;;;;;;;;5040282;28;20045;-72
2023/06/28 02:56:46;;;;;;;10.30;5.50;;;;;;;;;;5048219;28;20045;-72
2023/06/28 02:59:13;;;;;;;10.68;5.40;;;;;;;;;;5048487;28;20044;-72
2023/06/28 03:01:39;;;;;;;15.88;6.15;;;;;;;;;;5031890;28;20053;-73
2023/06/28 03:04:07;;;;;;;11.73;5.57;;;;;;;;;;5032159;28;20085;-71
2023/06/28 03:06:33;;;;;;;12.13;5.82;;;;;;;;;;5032061;28;20124;-71
2023/06/28 03:08:59;;;;;;;12.43;5.60;;;;;;;;;;5031805;28;20126;-70
2023/06/28 03:11:25;;;;;;;14.95;5.90;;;;;;;;;;5035418;28;20048;-71
2023/06/28 03:13:51;;;;;;;11.02;5.95;;;;;;;;;;5050715;28;20424;-71
2023/06/28 03:16:18;;;;;;;12.45;6.00;;;;;;;;;;5051660;28;20133;-72
2023/06/28 03:18:44;;;;;;;10.13;5.45;;;;;;;;;;5033939;28;20672;-72
2023/06/28 03:21:11;;;;;;;11.18;5.30;;;;;;;;;;5050211;28;20052;-72
2023/06/28 03:23:37;;;;;;;11.18;5.85;;;;;;;;;;5051609;28;20445;-72
2023/06/28 03:26:03;;;;;;;10.77;6.03;;;;;;;;;;5050698;28;20053;-72
2023/06/28 03:28:29;;;;;;;12.77;5.45;;;;;;;;;;5015036;28;20433;-72
2023/06/28 03:30:56;;;;;;;10.98;5.60;;;;;;;;;;5044097;28;20057;-70
2023/06/28 03:33:22;;;;;;;10.50;5.50;;;;;;;;;;5037326;28;20052;-71
2023/06/28 03:35:48;;;;;;;12.43;5.85;;;;;;;;;;5029523;28;20456;-71
2023/06/28 03:38:15;;;;;;;10.40;5.55;;;;;;;;;;5033894;28;20049;-71
2023/06/28 03:40:42;;;;;;;9.85;5.15;;;;;;;;;;5044116;28;20044;-71
2023/06/28 03:43:08;;;;;;;8.90;5.00;;;;;;;;;;5053191;28;20456;-72
2023/06/28 03:45:34;;;;;;;8.50;5.07;;;;;;;;;;5054668;28;20127;-71
2023/06/28 03:48:00;;;;;;;10.48;5.60;;;;;;;;;;5037082;28;20056;-71
2023/06/28 03:50:26;;;;;;;10.25;5.22;;;;;;;;;;5053917;28;20132;-72
2023/06/28 03:52:52;;;;;;;10.45;5.43;;;;;;;;;;5046973;28;20072;-72
2023/06/28 03:55:18;;;;;;;10.60;5.20;;;;;;;;;;5037129;28;20538;-71
2023/06/28 03:57:45;;;;;;;10.07;5.38;;;;;;;;;;5054280;28;20072;-72
2023/06/28 04:00:12;;;;;;;11.02;4.72;;;;;;;;;;5052973;28;20044;-72
2023/06/28 04:02:38;;;;;;;10.90;5.05;;;;;;;;;;5054822;28;20037;-72
2023/06/28 04:05:05;;;;;;;8.98;4.80;;;;;;;;;;5036995;28;20045;-72
2023/06/28 04:07:31;;;;;;;13.02;5.35;;;;;;;;;;5053187;28;20416;-72
2023/06/28 04:09:58;;;;;;;8.10;4.38;;;;;;;;;;5053600;28;20154;-72
2023/06/28 04:12:24;;;;;;;9.75;5.00;;;;;;;;;;5054484;28;20049;-71
2023/06/28 04:14:52;;;;;;;7.88;4.65;;;;;;;;;;5051345;28;20068;-71
2023/06/28 04:17:18;;;;;;;9.02;4.32;;;;;;;;;;5037430;28;20053;-71
2023/06/28 04:19:44;;;;;;;8.07;4.28;;;;;;;;;;5034220;28;20421;-71
2023/06/28 04:22:10;;;;;;;8.18;4.10;;;;;;;;;;5027838;28;20048;-71
2023/06/28 04:24:37;;;;;;;6.22;4.03;;;;;;;;;;5051160;28;20551;-71
2023/06/28 04:27:03;;;;;;;8.20;3.88;;;;;;;;;;5051049;28;20044;-71
2023/06/28 04:29:29;;;;;;;7.97;4.40;;;;;;;;;;5052764;28;20053;-71
2023/06/28 04:32:02;;;;;;;8.05;4.13;;;;;;;;;;5053727;28;20041;-71
2023/06/28 04:34:28;;;;;;;9.63;4.50;;;;;;;;;;5029180;28;20132;-71
2023/06/28 04:36:57;;;;;;;10.73;4.35;;;;;;;;;;5048876;28;20105;-72
2023/06/28 04:39:23;;;;;;;11.20;4.47;;;;;;;;;;5052427;28;20086;-72
2023/06/28 04:41:51;;;;;;;7.88;4.70;;;;;;;;;;5015411;28;20051;-72
2023/06/28 04:44:17;;;;;;;7.88;3.80;;;;;;;;;;5030275;28;20060;-72
2023/06/28 04:46:44;;;;;;;7.95;4.05;;;;;;;;;;5033609;28;20128;-72
2023/06/28 04:49:11;;;;;;;8.00;3.95;;;;;;;;;;5036723;28;20051;-72
2023/06/28 04:51:37;;;;;;;6.55;3.80;;;;;;;;;;5053554;28;20041;-72
2023/06/28 04:54:03;;;;;;;7.28;3.78;;;;;;;;;;5053525;28;20041;-72
2023/06/28 04:56:30;;;;;;;6.55;3.97;;;;;;;;;;5053756;28;20436;-72
2023/06/28 04:58:56;;;;;;;9.35;4.10;;;;;;;;;;5035740;28;20049;-72
2023/06/28 05:01:22;;;;;;;9.48;4.20;;;;;;;;;;5051711;28;20055;-72
2023/06/28 05:03:48;;;;;;;8.25;4.50;;;;;;;;;;5053347;28;20481;-72
2023/06/28 05:06:14;;;;;;;11.38;5.07;;;;;;;;;;5053731;28;20056;-72
2023/06/28 05:08:40;;;;;;;9.55;4.63;;;;;;;;;;5053147;28;20044;-73
2023/06/28 05:11:07;;;;;;;7.97;4.70;;;;;;;;;;5052609;28;20120;-72
2023/06/28 05:13:33;;;;;;;7.28;4.32;;;;;;;;;;5043226;28;20564;-72
2023/06/28 05:16:00;;;;;;;10.68;4.68;;;;;;;;;;5034369;28;20049;-72
2023/06/28 05:18:26;;;;;;;10.73;5.10;;;;;;;;;;5047940;28;20045;-72
2023/06/28 05:20:52;;;;;;;8.20;5.00;;;;;;;;;;5053316;28;20128;-72
2023/06/28 05:23:20;;;;;;;8.98;4.63;;;;;;;;;;5035459;28;20135;-72
2023/06/28 05:25:46;;;;;;;9.07;4.50;;;;;;;;;;5049385;28;20131;-72
2023/06/28 05:28:14;;;;;;;9.40;4.38;;;;;;;;;;5033407;28;20045;-72
2023/06/28 05:30:41;;;;;;;9.48;4.47;;;;;;;;;;5051114;28;20401;-72
2023/06/28 05:33:10;;;;;;;9.13;4.65;;;;;;;;;;5053253;28;20440;-72
2023/06/28 05:35:37;;;;;;;9.90;5.30;;;;;;;;;;5051232;28;20041;-72
2023/06/28 05:38:04;;;;;;;10.68;5.30;;;;;;;;;;5052040;28;20041;-72
2023/06/28 05:40:31;;;;;;;10.15;5.50;;;;;;;;;;5042662;28;20040;-72
2023/06/28 05:42:59;;;;;;;9.63;5.60;;;;;;;;;;5053221;28;20047;-72
2023/06/28 05:45:25;;;;;;;9.93;5.25;;;;;;;;;;5035458;28;20401;-72
2023/06/28 05:47:52;;;;;;;10.13;5.50;;;;;;;;;;5015572;28;20371;-72
2023/06/28 05:50:21;;;;;;;9.05;5.00;;;;;;;;;;5045092;28;20080;-72
2023/06/28 05:52:48;;;;;;;11.32;5.65;;;;;;;;;;5052943;28;20045;-72
2023/06/28 05:55:14;;;;;;;11.13;5.20;;;;;;;;;;5051142;28;20088;-72
2023/06/28 05:57:41;;;;;;;9.35;5.07;;;;;;;;;;5037563;28;20455;-72
2023/06/28 06:00:08;;;;;;;10.27;5.03;;;;;;;;;;5040763;28;20108;-72
2023/06/28 06:02:35;;;;;;;8.23;4.80;;;;;;;;;;5055701;28;20094;-72
2023/06/28 06:05:01;;;;;;;8.85;4.82;;;;;;;;;;5050791;28;20041;-73
2023/06/28 06:07:28;;;;;;;7.30;4.53;;;;;;;;;;5051098;28;20076;-72
2023/06/28 06:09:55;;;;;;;10.27;4.65;;;;;;;;;;5051868;28;20096;-72
2023/06/28 06:12:21;;;;;;;8.00;4.60;;;;;;;;;;5049245;28;20079;-72
2023/06/28 06:14:51;;;;;;;7.78;4.50;;;;;;;;;;5032113;28;20053;-72
2023/06/28 06:17:18;;;;;;;10.35;4.88;;;;;;;;;;5037585;28;20049;-72
2023/06/28 06:19:44;;;;;;;9.77;4.90;;;;;;;;;;5033208;28;20045;-71
2023/06/28 06:22:10;;;;;;;10.32;5.68;;;;;;;;;;5034557;28;20041;-72
2023/06/28 06:24:36;;;;;;;12.40;5.90;;;;;;;;;;5014369;28;20099;-72
2023/06/28 06:27:03;;;;;;;11.52;5.15;;;;;;;;;;5032138;28;20048;-74
2023/06/28 06:29:30;;;;;;;10.48;5.10;;;;;;;;;;5032057;28;20410;-73
2023/06/28 06:31:56;;;;;;;8.40;4.85;;;;;;;;;;5019896;28;20112;-71
2023/06/28 06:34:22;;;;;;;9.57;4.95;;;;;;;;;;5041291;28;20370;-71
2023/06/28 06:36:49;;;;;;;10.18;5.28;;;;;;;;;;5050879;28;20468;-71
2023/06/28 06:39:15;;;;;;;9.90;5.18;;;;;;;;;;5035900;28;20044;-71
2023/06/28 06:41:41;;;;;;;12.77;5.32;;;;;;;;;;5031785;28;20120;-71
2023/06/28 06:44:07;;;;;;;13.00;5.90;;;;;;;;;;5014203;28;20433;-72
2023/06/28 06:46:33;;;;;;;14.60;6.05;;;;;;;;;;5014099;28;20037;-71
2023/06/28 06:48:59;;;;;;;10.52;6.13;;;;;;;;;;5031847;28;20045;-70
2023/06/28 06:51:25;;;;;;;15.90;6.18;;;;;;;;;;5051881;28;20064;-72
2023/06/28 06:53:51;;;;;;;14.82;6.38;;;;;;;;;;5051686;28;20441;-74
2023/06/28 06:56:22;;;;;;;13.90;7.07;;;;;;;;;;5051746;28;20029;-72
2023/06/28 06:58:48;;;;;;;11.93;7.40;;;;;;;;;;5051649;28;20494;-71
2023/06/28 07:01:14;;;;;;;15.50;7.53;;;;;;;;;;5033552;28;20053;-72
2023/06/28 07:03:40;;;;;;;13.32;7.43;;;;;;;;;;5050023;28;20055;-71
2023/06/28 07:06:07;;;;;;;13.55;7.70;;;;;;;;;;5033880;28;20402;-71
2023/06/28 07:08:33;;;;;;;14.80;7.05;;;;;;;;;;5036399;28;20532;-71
2023/06/28 07:11:00;;;;;;;16.23;7.63;;;;;;;;;;5052719;28;20502;-72
2023/06/28 07:13:26;;;;;;;15.77;7.40;;;;;;;;;;5051345;28;20052;-72
2023/06/28 07:15:52;;;;;;;13.73;7.47;;;;;;;;;;5055309;28;20084;-72
2023/06/28 07:18:18;;;;;;;12.57;7.32;;;;;;;;;;5054164;28;20615;-71
2023/06/28 07:20:44;;;;;;;16.58;7.85;;;;;;;;;;5055110;28;20045;-71
2023/06/28 07:23:11;;;;;;;15.48;8.50;;;;;;;;;;5052382;28;20041;-71
2023/06/28 07:25:38;;;;;;;12.50;8.00;;;;;;;;;;5055222;28;20110;-71
2023/06/28 07:28:05;;;;;;;19.92;8.15;;;;;;;;;;5055372;28;20049;-71
2023/06/28 07:30:50;;;;;;;16.20;8.43;;;;;;;;;;5041084;28;20049;-71
2023/06/28 07:33:17;;;;;;;14.93;7.80;;;;;;;;;;5049688;28;20038;-72
2023/06/28 07:35:43;;;;;;;13.35;7.75;;;;;;;;;;5045367;28;20049;-71
2023/06/28 07:38:09;;;;;;;14.35;8.63;;;;;;;;;;5034968;28;20446;-71
2023/06/28 07:40:35;;;;;;;13.27;8.27;;;;;;;;;;5051392;28;20049;-72
2023/06/28 07:43:02;;;;;;;13.45;7.90;;;;;;;;;;5054390;28;20051;-72
2023/06/28 07:45:29;;;;;;;14.32;8.48;;;;;;;;;;5037043;28;20056;-72
2023/06/28 07:47:55;;;;;;;13.63;7.57;;;;;;;;;;5055357;28;20037;-71
2023/06/28 07:50:22;;;;;;;13.25;7.72;;;;;;;;;;5053229;28;20075;-73
2023/06/28 07:52:48;;;;;;;11.43;7.43;;;;;;;;;;5055048;28;20040;-71
2023/06/28 07:55:14;;;;;;;14.02;7.85;;;;;;;;;;5034487;28;20105;-72
2023/06/28 07:57:40;;;;;;;13.77;7.60;;;;;;;;;;5053443;28;20045;-72
2023/06/28 08:00:07;;;;;;;11.77;6.88;;;;;;;;;;5053811;28;20044;-75
2023/06/28 08:02:33;;;;;;;12.65;6.95;;;;;;;;;;5046471;28;20037;-72
2023/06/28 08:04:59;;;;;;;12.98;7.10;;;;;;;;;;5050137;28;20048;-72
2023/06/28 08:07:25;;;;;;;14.63;7.65;;;;;;;;;;5036278;28;20049;-72
2023/06/28 08:09:51;;;;;;;11.52;7.05;;;;;;;;;;5052769;28;20061;-72
2023/06/28 08:12:18;;;;;;;15.38;7.63;;;;;;;;;;5038159;28;20056;-72
2023/06/28 08:14:44;;;;;;;11.82;7.28;;;;;;;;;;5051551;28;20163;-72
2023/06/28 08:17:10;;;;;;;14.15;7.70;;;;;;;;;;5051799;28;20517;-73
2023/06/28 08:19:36;;;;;;;13.85;7.07;;;;;;;;;;5051775;28;20048;-71
2023/06/28 08:22:03;;;;;;;13.68;7.30;;;;;;;;;;5054293;28;20445;-72
2023/06/28 08:24:29;;;;;;;12.73;7.13;;;;;;;;;;5053012;28;20185;-72
2023/06/28 08:26:55;;;;;;;12.90;6.53;;;;;;;;;;5052377;28;20047;-73
2023/06/28 08:29:22;;;;;;;12.30;6.32;;;;;;;;;;5053940;28;20045;-72
2023/06/28 08:31:49;;;;;;;12.82;7.18;;;;;;;;;;5036428;28;20049;-73
2023/06/28 08:34:16;;;;;;;14.35;6.82;;;;;;;;;;5052462;28;20057;-71
2023/06/28 08:36:42;;;;;;;12.75;6.07;;;;;;;;;;5053756;28;20041;-72
2023/06/28 08:39:09;;;;;;;10.95;6.75;;;;;;;;;;5053250;28;20432;-71
2023/06/28 08:41:35;;;;;;;11.63;7.07;;;;;;;;;;5051714;28;20322;-71
2023/06/28 08:44:02;;;;;;;12.68;6.80;;;;;;;;;;5052956;28;20049;-71
2023/06/28 08:46:31;;;;;;;12.10;6.82;;;;;;;;;;5052164;28;20045;-71
2023/06/28 08:48:58;;;;;;;11.23;6.88;;;;;;;;;;5053558;28;20114;-71
2023/06/28 08:51:25;;;;;;;10.93;6.45;;;;;;;;;;5054045;28;20100;-71
2023/06/28 08:53:52;;;;;;;12.10;7.20;;;;;;;;;;5053603;28;20044;-71
2023/06/28 08:56:18;;;;;;;10.73;7.00;;;;;;;;;;5053404;28;20076;-71
2023/06/28 08:58:48;;;;;;;13.38;6.80;;;;;;;;;;5053416;28;20094;-72
2023/06/28 09:01:15;;;;;;;11.98;7.15;;;;;;;;;;5053928;28;20127;-72
2023/06/28 09:03:42;;;;;;;12.20;6.68;;;;;;;;;;5053085;28;20391;-72
2023/06/28 09:06:09;;;;;;;10.75;6.70;;;;;;;;;;5035038;28;20045;-72
2023/06/28 09:08:35;;;;;;;11.73;6.75;;;;;;;;;;5035182;28;20063;-72
2023/06/28 09:11:02;;;;;;;11.05;6.47;;;;;;;;;;5052885;28;20056;-71
2023/06/28 09:13:28;;;;;;;15.68;7.93;;;;;;;;;;5035307;28;20162;-72
2023/06/28 09:15:55;;;;;;;11.95;7.45;;;;;;;;;;5035113;28;20059;-71
2023/06/28 09:18:21;;;;;;;14.27;8.10;;;;;;;;;;5053651;28;20053;-75
2023/06/28 09:20:48;;;;;;;12.20;7.32;;;;;;;;;;5053317;28;20045;-75
2023/06/28 09:23:36;;;;;;;12.45;8.43;;;;;;;;;;5053264;28;20092;-74
2023/06/28 09:26:03;;;;;;;14.35;8.65;;;;;;;;;;5034775;28;20119;-74
2023/06/28 09:28:33;;;;;;;11.63;8.15;;;;;;;;;;5051732;28;20053;-73
2023/06/28 09:31:00;;;;;;;13.32;8.40;;;;;;;;;;5052840;28;20136;-73
2023/06/28 09:33:26;;;;;;;13.13;8.45;;;;;;;;;;5053052;28;20132;-74
2023/06/28 09:35:56;;;;;;;14.95;8.68;;;;;;;;;;5052241;28;20491;-72
2023/06/28 09:38:23;;;;;;;12.65;8.77;;;;;;;;;;5037626;28;20049;-72
2023/06/28 09:40:54;;;;;;;12.52;8.30;;;;;;;;;;5058689;28;20048;-72
2023/06/28 09:43:20;;;;;;;16.10;9.15;;;;;;;;;;5025945;28;20136;-73
2023/06/28 09:45:47;;;;;;;13.30;9.32;;;;;;;;;;5049195;28;20040;-73
2023/06/28 09:48:14;;;;;;;15.32;9.73;;;;;;;;;;5069114;28;20111;-74
2023/06/28 09:50:44;;;;;;;16.92;10.68;;;;;;;;;;5052430;28;20510;-74
2023/06/28 09:53:15;;;;;;;19.05;10.75;;;;;;;;;;5046309;28;20526;-73
2023/06/28 09:55:42;;;;;;;17.10;10.60;;;;;;;;;;5042047;28;20180;-74
2023/06/28 09:58:10;;;;;;;14.95;10.13;;;;;;;;;;5068836;28;20076;-74
2023/06/28 10:00:37;;;;;;;15.98;11.50;;;;;;;;;;5050124;28;20105;-72
2023/06/28 10:03:05;;;;;;;16.98;10.38;;;;;;;;;;5049168;28;20092;-71
2023/06/28 10:05:32;;;;;;;17.25;11.52;;;;;;;;;;5057095;28;20045;-71
2023/06/28 10:07:59;;;;;;;17.40;11.40;;;;;;;;;;5072067;28;20051;-72
2023/06/28 10:10:26;;;;;;;17.25;11.23;;;;;;;;;;5031006;28;20053;-71
2023/06/28 10:12:53;;;;;;;18.23;12.20;;;;;;;;;;5051096;28;20052;-71
2023/06/28 10:15:25;;;;;;;17.45;11.02;;;;;;;;;;5031921;28;20437;-71
2023/06/28 10:17:51;;;;;;;18.20;11.55;;;;;;;;;;5049852;28;20090;-71
2023/06/28 10:20:18;;;;;;;18.23;12.00;;;;;;;;;;5040916;28;20033;-72
2023/06/28 10:22:45;;;;;;;15.25;10.65;;;;;;;;;;5009854;28;20092;-72
2023/06/28 10:25:11;;;;;;;18.35;11.05;;;;;;;;;;5027210;28;20049;-72
2023/06/28 10:27:38;;;;;;;18.67;11.50;;;;;;;;;;5009536;28;20081;-72
2023/06/28 10:30:05;;;;;;;16.23;11.85;;;;;;;;;;5027248;28;20529;-72
2023/06/28 10:32:32;;;;;;;15.18;11.10;;;;;;;;;;5028794;28;20394;-71
2023/06/28 10:34:59;;;;;;;17.60;11.20;;;;;;;;;;5028897;28;20558;-72
2023/06/28 10:37:25;;;;;;;15.85;11.82;;;;;;;;;;5011288;28;20048;-72
2023/06/28 10:39:52;;;;;;;19.33;11.88;;;;;;;;;;5013978;28;20048;-72
2023/06/28 10:42:21;;;;;;;18.02;11.73;;;;;;;;;;5010492;28;20046;-73
2023/06/28 10:44:57;;;;;;;19.60;12.27;;;;;;;;;;5032913;28;20362;-73
2023/06/28 10:47:24;;;;;;;19.13;11.90;;;;;;;;;;5029121;28;20061;-74
2023/06/28 10:50:09;;;;;;;20.40;12.25;;;;;;;;;;5018607;28;20079;-73
2023/06/28 10:52:36;;;;;;;16.27;11.15;;;;;;;;;;5048751;28;20580;-73
2023/06/28 10:55:03;;;;;;;20.75;13.00;;;;;;;;;;5048949;28;20049;-73
2023/06/28 10:57:41;;;;;;;20.08;12.82;;;;;;;;;;5045672;28;20175;-73
2023/06/28 11:00:26;;;;;;;17.92;12.07;;;;;;;;;;5031083;28;20081;-72
2023/06/28 11:02:54;;;;;;;17.65;12.48;;;;;;;;;;5021975;28;20489;-70
2023/06/28 11:05:39;;;;;;;18.27;12.98;;;;;;;;;;5032522;28;20124;-70
2023/06/28 11:08:09;;;;;;;19.58;12.45;;;;;;;;;;5034230;28;20041;-70
2023/06/28 11:10:39;;;;;;;20.42;13.00;;;;;;;;;;5031379;28;20057;-71
2023/06/28 11:13:08;;;;;;;18.15;12.15;;;;;;;;;;5031655;28;20057;-71
2023/06/28 11:15:35;;;;;;;17.98;12.52;;;;;;;;;;5014124;28;20064;-71
2023/06/28 11:18:09;;;;;;;16.20;12.43;;;;;;;;;;5032077;28;20045;-70
2023/06/28 11:20:47;;;;;;;21.02;13.10;;;;;;;;;;5036568;28;20055;-71
2023/06/28 11:23:23;;;;;;;18.92;12.82;;;;;;;;;;5047486;28;20045;-71
2023/06/28 11:25:54;;;;;;;17.98;12.77;;;;;;;;;;5027320;28;20092;-71
2023/06/28 11:28:28;;;;;;;19.92;14.75;;;;;;;;;;5047214;28;20443;-71
2023/06/28 11:30:55;;;;;;;22.75;14.43;;;;;;;;;;5046480;28;20038;-71
2023/06/28 11:33:24;;;;;;;21.02;14.00;;;;;;;;;;5026209;28;20087;-71
2023/06/28 11:35:52;;;;;;;19.70;14.68;;;;;;;;;;5033578;28;20457;-71
2023/06/28 11:38:19;;;;;;;22.73;14.57;;;;;;;;;;5038246;28;20056;-71
2023/06/28 11:40:45;;;;;;;18.77;14.02;;;;;;;;;;5032333;28;20037;-70
2023/06/28 11:43:11;;;;;;;17.70;14.32;;;;;;;;;;5019428;28;20379;-71
2023/06/28 11:45:38;;;;;;;22.10;13.65;;;;;;;;;;5030917;28;20091;-70
2023/06/28 11:48:05;;;;;;;21.85;14.38;;;;;;;;;;5031320;28;20099;-71
2023/06/28 11:50:31;;;;;;;21.70;14.95;;;;;;;;;;5037169;28;20486;-70
2023/06/28 11:52:58;;;;;;;20.00;13.82;;;;;;;;;;5028262;28;20052;-70
2023/06/28 11:55:27;;;;;;;20.65;15.77;;;;;;;;;;5017831;28;20045;-70
2023/06/28 11:57:54;;;;;;;20.05;15.38;;;;;;;;;;5036247;28;20064;-70
2023/06/28 12:00:20;;;;;;;19.45;14.90;;;;;;;;;;5054361;28;20044;-70
2023/06/28 12:02:50;;;;;;;20.17;15.35;;;;;;;;;;5035771;28;20056;-70
2023/06/28 12:05:19;;;;;;;19.00;14.70;;;;;;;;;;5050631;28;20558;-70
2023/06/28 12:07:46;;;;;;;21.05;16.83;;;;;;;;;;5054416;28;20049;-70
2023/06/28 12:10:12;;;;;;;23.17;17.13;;;;;;;;;;5054016;28;20405;-71
2023/06/28 12:12:39;;;;;;;26.20;17.02;;;;;;;;;;5053270;28;20041;-71
2023/06/28 12:15:06;;;;;;;23.17;17.33;;;;;;;;;;5054201;28;20493;-70
2023/06/28 12:17:42;;;;;;;26.58;16.88;;;;;;;;;;5051930;28;20132;-71
2023/06/28 12:20:09;;;;;;;23.30;17.25;;;;;;;;;;5036033;28;20084;-70
2023/06/28 12:22:43;;;;;;;23.67;18.42;;;;;;;;;;5050198;28;20048;-71
2023/06/28 12:25:09;;;;;;;22.27;17.65;;;;;;;;;;5044244;28;20048;-71
2023/06/28 12:27:36;;;;;;;25.73;18.63;;;;;;;;;;5052935;28;20513;-71
2023/06/28 12:30:09;;;;;;;25.42;18.70;;;;;;;;;;5053752;28;20052;-70
2023/06/28 12:32:35;;;;;;;23.98;17.85;;;;;;;;;;5054334;28;20052;-71
2023/06/28 12:35:01;;;;;;;22.20;17.75;;;;;;;;;;5052063;28;20098;-69
2023/06/28 12:37:42;;;;;;;25.60;18.52;;;;;;;;;;5051851;28;20049;-69
2023/06/28 12:40:09;;;;;;;24.25;17.58;;;;;;;;;;5035866;28;20041;-70
2023/06/28 12:42:35;;;;;;;29.00;19.30;;;;;;;;;;5054073;28;20049;-70
2023/06/28 12:45:01;;;;;;;29.48;19.02;;;;;;;;;;5053798;28;20441;-70
2023/06/28 12:47:28;;;;;;;28.67;19.70;;;;;;;;;;5052592;28;20080;-71
2023/06/28 12:49:54;;;;;;;26.08;19.27;;;;;;;;;;5050403;28;20141;-71
2023/06/28 12:52:21;;;;;;;23.33;18.75;;;;;;;;;;5029967;28;20190;-73
2023/06/28 12:54:47;;;;;;;25.02;20.13;;;;;;;;;;5052671;28;20463;-71
2023/06/28 12:57:14;;;;;;;27.15;19.73;;;;;;;;;;5048440;28;20030;-71
2023/06/28 12:59:40;;;;;;;25.20;18.60;;;;;;;;;;5015383;28;20056;-71
2023/06/28 13:02:07;;;;;;;25.60;19.73;;;;;;;;;;5037584;28;20040;-71
2023/06/28 13:04:34;;;;;;;26.00;19.55;;;;;;;;;;5035360;28;20540;-71
2023/06/28 13:07:00;;;;;;;24.98;19.10;;;;;;;;;;5053104;28;20371;-71
2023/06/28 13:09:26;;;;;;;23.25;17.10;;;;;;;;;;5053070;28;20120;-71
2023/06/28 13:11:53;;;;;;;22.35;17.80;;;;;;;;;;5053730;28;20049;-70
2023/06/28 13:14:19;;;;;;;24.15;18.05;;;;;;;;;;5035555;28;20494;-71
2023/06/28 13:16:45;;;;;;;25.20;18.98;;;;;;;;;;5055225;28;20366;-71
2023/06/28 13:19:11;;;;;;;24.33;18.52;;;;;;;;;;5055255;28;20084;-71
2023/06/28 13:21:37;;;;;;;28.25;20.13;;;;;;;;;;5056874;28;20040;-71
2023/06/28 13:24:04;;;;;;;27.98;19.45;;;;;;;;;;5052292;28;20378;-71
2023/06/28 13:26:30;;;;;;;25.88;18.70;;;;;;;;;;5035229;28;20277;-72
2023/06/28 13:28:56;;;;;;;25.20;18.73;;;;;;;;;;5053072;28;20041;-72
2023/06/28 13:31:23;;;;;;;24.83;18.90;;;;;;;;;;5052932;28;20128;-72
2023/06/28 13:33:49;;;;;;;29.08;21.88;;;;;;;;;;5050923;28;20044;-71
2023/06/28 13:36:19;;;;;;;26.52;20.63;;;;;;;;;;5053062;28;20049;-71
2023/06/28 13:38:45;;;;;;;29.92;22.50;;;;;;;;;;5052890;28;20091;-71
2023/06/28 13:41:11;;;;;;;27.75;22.02;;;;;;;;;;5050388;28;20155;-72
2023/06/28 13:43:38;;;;;;;28.50;22.13;;;;;;;;;;5050070;28;20044;-71
2023/06/28 13:46:05;;;;;;;29.20;22.45;;;;;;;;;;5032156;28;20045;-71
2023/06/28 13:48:31;;;;;;;34.80;23.55;;;;;;;;;;5052147;28;20041;-71
2023/06/28 13:50:57;;;;;;;30.23;23.35;;;;;;;;;;5044202;28;20042;-71
2023/06/28 13:53:24;;;;;;;31.45;24.15;;;;;;;;;;5021584;28;20052;-71
2023/06/28 13:55:50;;;;;;;27.42;22.13;;;;;;;;;;5052408;28;20045;-71
2023/06/28 13:58:16;;;;;;;30.42;22.85;;;;;;;;;;5052478;28;20115;-71
2023/06/28 14:00:42;;;;;;;31.17;23.30;;;;;;;;;;5051093;28;20052;-71
2023/06/28 14:03:09;;;;;;;31.80;23.65;;;;;;;;;;5050476;28;20049;-71
2023/06/28 14:05:35;;;;;;;32.53;23.67;;;;;;;;;;5050239;28;20130;-71
2023/06/28 14:08:02;;;;;;;31.10;23.67;;;;;;;;;;5050353;28;20080;-71
2023/06/28 14:10:28;;;;;;;32.58;24.80;;;;;;;;;;5051876;28;20057;-71
2023/06/28 14:12:54;;;;;;;32.78;25.10;;;;;;;;;;5051527;28;20041;-71
2023/06/28 14:15:20;;;;;;;30.23;23.90;;;;;;;;;;5043817;28;20524;-71
2023/06/28 14:17:47;;;;;;;29.85;24.10;;;;;;;;;;5051181;28;20098;-71
2023/06/28 14:20:16;;;;;;;33.55;24.73;;;;;;;;;;5050246;28;20048;-72
2023/06/28 14:22:47;;;;;;;34.47;25.58;;;;;;;;;;5049165;28;20037;-71
2023/06/28 14:25:13;;;;;;;34.88;25.75;;;;;;;;;;5045435;28;20052;-71
2023/06/28 14:27:39;;;;;;;33.72;24.58;;;;;;;;;;5040638;28;20115;-71